createdAt,value
2022-07-28T00:02:01.006Z,6.25
2022-07-28T00:04:29.049Z,6.05
2022-07-28T00:06:55.712Z,5.85
2022-07-28T00:09:22.281Z,5.85
2022-07-28T00:11:54.236Z,5.80
2022-07-28T00:14:21.595Z,5.82
2022-07-28T00:16:48.216Z,5.32
2022-07-28T00:19:14.875Z,5.70
2022-07-28T00:21:42.793Z,6.30
2022-07-28T00:24:09.360Z,5.95
2022-07-28T00:26:36.060Z,6.22
2022-07-28T00:29:02.701Z,6.05
2022-07-28T00:31:29.364Z,5.72
2022-07-28T00:33:56.133Z,6.30
2022-07-28T00:36:24.585Z,5.72
2022-07-28T00:38:53.667Z,6.07
2022-07-28T00:41:20.623Z,6.25
2022-07-28T00:43:48.846Z,6.00
2022-07-28T00:46:17.679Z,6.68
2022-07-28T00:48:46.372Z,6.18
2022-07-28T00:51:15.184Z,6.65
2022-07-28T00:53:41.923Z,6.28
2022-07-28T00:56:10.191Z,6.28
2022-07-28T00:58:37.907Z,6.40
2022-07-28T01:01:04.732Z,6.32
2022-07-28T01:03:32.541Z,6.45
2022-07-28T01:06:06.362Z,7.15
2022-07-28T01:08:42.862Z,6.40
2022-07-28T01:11:18.627Z,6.07
2022-07-28T01:13:54.293Z,6.95
2022-07-28T01:16:22.502Z,6.88
2022-07-28T01:18:57.531Z,6.35
2022-07-28T01:21:27.631Z,7.72
2022-07-28T01:24:10.327Z,8.10
2022-07-28T01:26:53.572Z,6.43
2022-07-28T01:29:33.814Z,6.65
2022-07-28T01:32:06.472Z,6.82
2022-07-28T01:34:41.521Z,7.28
2022-07-28T01:37:16.339Z,6.70
2022-07-28T01:39:44.998Z,6.30
2022-07-28T01:42:13.807Z,7.50
2022-07-28T01:44:43.702Z,6.50
2022-07-28T01:47:13.111Z,6.80
2022-07-28T01:49:42.293Z,7.10
2022-07-28T01:52:09.361Z,6.97
2022-07-28T01:54:38.659Z,6.63
2022-07-28T01:57:07.835Z,6.72
2022-07-28T01:59:36.801Z,6.35
2022-07-28T02:02:05.894Z,6.90
2022-07-28T02:04:37.282Z,6.28
2022-07-28T02:07:05.013Z,6.25
2022-07-28T02:09:34.128Z,6.03
2022-07-28T02:12:02.912Z,6.55
2022-07-28T02:14:30.000Z,6.18
2022-07-28T02:16:58.702Z,7.03
2022-07-28T02:19:27.892Z,7.05
2022-07-28T02:21:56.279Z,6.53
2022-07-28T02:24:25.588Z,6.57
2022-07-28T02:26:58.396Z,6.68
2022-07-28T02:29:49.825Z,6.10
2022-07-28T02:32:27.852Z,6.85
2022-07-28T02:35:00.839Z,6.07
2022-07-28T02:37:34.673Z,6.05
2022-07-28T02:40:04.238Z,6.45
2022-07-28T02:42:33.234Z,6.53
2022-07-28T02:45:02.807Z,5.60
2022-07-28T02:47:34.892Z,5.72
2022-07-28T02:50:04.419Z,5.75
2022-07-28T02:52:33.312Z,5.57
2022-07-28T02:55:02.495Z,5.22
2022-07-28T02:57:30.625Z,6.18
2022-07-28T02:59:58.030Z,5.20
2022-07-28T03:02:25.202Z,5.90
2022-07-28T03:04:53.068Z,6.10
2022-07-28T03:07:20.472Z,6.50
2022-07-28T03:09:49.670Z,5.82
2022-07-28T03:12:16.192Z,5.63
2022-07-28T03:14:42.929Z,6.18
2022-07-28T03:17:09.629Z,5.53
2022-07-28T03:19:36.516Z,6.07
2022-07-28T03:22:03.167Z,5.90
2022-07-28T03:24:33.739Z,5.50
2022-07-28T03:27:07.585Z,5.78
2022-07-28T03:29:35.864Z,6.18
2022-07-28T03:32:02.542Z,5.57
2022-07-28T03:34:29.696Z,5.43
2022-07-28T03:37:00.981Z,5.47
2022-07-28T03:39:32.679Z,5.88
2022-07-28T03:44:29.231Z,6.00
2022-07-28T03:46:56.202Z,6.50
2022-07-28T03:49:22.818Z,5.93
2022-07-28T03:51:49.489Z,5.63
2022-07-28T03:54:16.493Z,6.25
2022-07-28T03:56:43.341Z,5.90
2022-07-28T03:59:09.974Z,5.28
2022-07-28T04:01:38.001Z,6.30
2022-07-28T04:04:04.863Z,5.65
2022-07-28T04:06:31.426Z,5.97
2022-07-28T04:08:58.027Z,5.47
2022-07-28T04:11:24.643Z,6.15
2022-07-28T04:13:51.238Z,5.03
2022-07-28T04:16:17.950Z,5.68
2022-07-28T04:18:45.877Z,5.82
2022-07-28T04:21:12.426Z,5.70
2022-07-28T04:23:39.006Z,6.10
2022-07-28T04:26:05.663Z,5.57
2022-07-28T04:28:32.201Z,5.07
2022-07-28T04:30:58.864Z,5.43
2022-07-28T04:33:25.523Z,5.88
2022-07-28T04:35:53.443Z,5.45
2022-07-28T04:38:20.214Z,5.22
2022-07-28T04:40:47.715Z,5.95
2022-07-28T04:43:14.449Z,6.07
2022-07-28T04:45:45.883Z,5.93
2022-07-28T04:48:14.019Z,6.45
2022-07-28T04:50:41.686Z,5.47
2022-07-28T04:53:09.591Z,6.00
2022-07-28T04:55:36.229Z,5.55
2022-07-28T04:58:05.391Z,5.57
2022-07-28T05:00:33.449Z,5.65
2022-07-28T05:03:00.098Z,6.07
2022-07-28T05:05:26.775Z,5.60
2022-07-28T05:07:53.311Z,6.18
2022-07-28T05:10:21.442Z,5.68
2022-07-28T05:12:48.002Z,6.25
2022-07-28T05:15:14.754Z,6.47
2022-07-28T05:17:41.299Z,5.95
2022-07-28T05:20:08.721Z,6.40
2022-07-28T05:22:42.239Z,5.72
2022-07-28T05:25:13.631Z,6.38
2022-07-28T05:27:41.563Z,5.80
2022-07-28T05:30:09.855Z,6.05
2022-07-28T05:32:36.709Z,5.60
2022-07-28T05:35:03.522Z,6.57
2022-07-28T05:37:32.518Z,6.03
2022-07-28T05:39:59.061Z,6.22
2022-07-28T05:42:25.606Z,6.07
2022-07-28T05:44:53.570Z,6.18
2022-07-28T05:47:20.119Z,5.65
2022-07-28T05:49:46.670Z,6.97
2022-07-28T05:52:13.224Z,6.43
2022-07-28T05:54:39.760Z,5.78
2022-07-28T05:57:06.309Z,6.13
2022-07-28T05:59:32.839Z,6.15
2022-07-28T06:02:00.769Z,6.15
2022-07-28T06:04:28.317Z,6.90
2022-07-28T06:06:55.519Z,5.68
2022-07-28T06:09:22.098Z,5.75
2022-07-28T06:11:48.699Z,6.13
2022-07-28T06:14:15.774Z,6.60
2022-07-28T06:16:42.651Z,5.95
2022-07-28T06:19:10.774Z,6.22
2022-07-28T06:21:37.356Z,5.82
2022-07-28T06:24:04.521Z,5.78
2022-07-28T06:26:31.061Z,5.53
2022-07-28T06:28:57.616Z,6.20
2022-07-28T06:31:24.237Z,5.95
2022-07-28T06:33:50.857Z,5.90
2022-07-28T06:36:18.775Z,5.32
2022-07-28T06:38:45.335Z,5.55
2022-07-28T06:41:12.273Z,5.15
2022-07-28T06:43:39.457Z,5.47
2022-07-28T06:46:06.396Z,5.38
2022-07-28T06:48:33.234Z,5.03
2022-07-28T06:50:59.949Z,5.43
2022-07-28T06:53:33.646Z,4.50
2022-07-28T06:56:00.719Z,4.82
2022-07-28T06:58:27.263Z,4.70
2022-07-28T07:00:53.848Z,4.63
2022-07-28T07:03:20.453Z,4.85
2022-07-28T07:05:49.048Z,4.57
2022-07-28T07:10:46.060Z,4.90
2022-07-28T07:13:13.523Z,4.82
2022-07-28T07:15:40.696Z,4.78
2022-07-28T07:18:07.521Z,4.63
2022-07-28T07:20:34.079Z,4.43
2022-07-28T07:23:00.666Z,4.55
2022-07-28T07:25:27.251Z,4.70
2022-07-28T07:27:55.197Z,4.78
2022-07-28T07:30:21.775Z,4.97
2022-07-28T07:32:48.368Z,4.45
2022-07-28T07:35:15.001Z,4.20
2022-07-28T07:37:41.579Z,4.70
2022-07-28T07:40:09.526Z,4.30
2022-07-28T07:42:36.206Z,4.35
2022-07-28T07:45:06.482Z,4.20
2022-07-28T07:47:33.057Z,4.70
2022-07-28T07:50:03.894Z,4.05
2022-07-28T07:52:31.091Z,4.25
2022-07-28T07:54:57.675Z,4.80
2022-07-28T07:57:24.249Z,4.22
2022-07-28T07:59:50.830Z,3.67
2022-07-28T08:02:18.735Z,3.85
2022-07-28T08:04:45.313Z,3.90
2022-07-28T08:07:15.153Z,3.92
2022-07-28T08:09:41.750Z,4.22
2022-07-28T08:12:08.989Z,3.58
2022-07-28T08:14:35.537Z,3.80
2022-07-28T08:17:02.085Z,4.13
2022-07-28T08:19:30.031Z,3.58
2022-07-28T08:21:56.565Z,3.55
2022-07-28T08:24:31.622Z,3.58
2022-07-28T08:27:00.522Z,3.72
2022-07-28T08:29:27.181Z,3.42
2022-07-28T08:31:53.778Z,3.70
2022-07-28T08:34:31.604Z,4.13
2022-07-28T08:37:03.400Z,3.10
2022-07-28T08:39:30.317Z,3.60
2022-07-28T08:42:01.848Z,3.20
2022-07-28T08:46:57.506Z,3.83
2022-07-28T08:49:24.701Z,3.28
2022-07-28T08:51:55.780Z,3.42
2022-07-28T08:54:27.818Z,3.50
2022-07-28T08:56:55.619Z,3.40
2022-07-28T08:59:23.712Z,3.35
2022-07-28T09:01:56.977Z,3.60
2022-07-28T09:04:24.651Z,3.53
2022-07-28T09:06:51.328Z,3.28
2022-07-28T09:09:18.298Z,3.17
2022-07-28T09:11:46.194Z,3.30
2022-07-28T09:14:13.085Z,3.83
2022-07-28T09:16:39.807Z,3.30
2022-07-28T09:19:06.362Z,3.38
2022-07-28T09:21:33.026Z,3.00
2022-07-28T09:23:59.590Z,3.67
2022-07-28T09:26:26.137Z,3.53
2022-07-28T09:28:55.772Z,3.13
2022-07-28T09:31:23.968Z,3.33
2022-07-28T09:33:56.372Z,3.35
2022-07-28T09:36:23.480Z,3.10
2022-07-28T09:38:50.508Z,2.97
2022-07-28T09:41:17.255Z,3.38
2022-07-28T09:43:45.321Z,2.85
2022-07-28T09:46:14.631Z,3.10
2022-07-28T09:48:56.547Z,3.33
2022-07-28T09:51:25.646Z,3.42
2022-07-28T09:53:53.426Z,3.20
2022-07-28T09:56:20.136Z,3.05
2022-07-28T09:58:53.940Z,13.70
2022-07-28T10:01:22.241Z,4.45
2022-07-28T10:03:53.699Z,4.10
2022-07-28T10:06:28.115Z,6.53
2022-07-28T10:08:56.415Z,2.70
2022-07-28T10:11:25.107Z,3.47
2022-07-28T10:13:53.790Z,4.10
2022-07-28T10:16:23.340Z,3.05
2022-07-28T10:18:49.977Z,3.00
2022-07-28T10:21:18.975Z,8.23
2022-07-28T10:23:47.222Z,4.93
2022-07-28T10:26:15.410Z,2.78
2022-07-28T10:28:47.027Z,2.85
2022-07-28T10:31:21.706Z,3.20
2022-07-28T10:33:53.429Z,3.10
2022-07-28T10:36:24.170Z,3.60
2022-07-28T10:38:54.174Z,2.70
2022-07-28T10:41:21.864Z,3.00
2022-07-28T10:43:49.422Z,2.28
2022-07-28T10:46:17.081Z,2.53
2022-07-28T10:48:44.638Z,2.88
2022-07-28T10:51:13.848Z,2.65
2022-07-28T10:53:45.830Z,2.67
2022-07-28T10:56:15.553Z,2.63
2022-07-28T10:58:49.347Z,2.75
2022-07-28T11:01:48.290Z,2.97
2022-07-28T11:04:49.682Z,2.70
2022-07-28T11:07:18.764Z,2.40
2022-07-28T11:09:46.473Z,2.47
2022-07-28T11:12:13.231Z,2.30
2022-07-28T11:14:40.922Z,2.60
2022-07-28T11:17:15.003Z,2.65
2022-07-28T11:20:16.297Z,2.38
2022-07-28T11:22:44.103Z,2.40
2022-07-28T11:25:18.501Z,2.30
2022-07-28T11:28:01.086Z,2.42
2022-07-28T11:30:50.907Z,2.10
2022-07-28T11:33:17.487Z,2.35
2022-07-28T11:35:57.766Z,2.20
2022-07-28T11:38:26.549Z,2.45
2022-07-28T11:40:54.873Z,2.10
2022-07-28T11:43:36.470Z,2.42
2022-07-28T11:46:22.745Z,2.03
2022-07-28T11:49:15.279Z,2.25
2022-07-28T11:52:16.879Z,2.33
2022-07-28T11:54:52.550Z,2.10
2022-07-28T11:57:19.294Z,2.40
2022-07-28T11:59:50.026Z,2.05
2022-07-28T12:02:22.742Z,2.22
2022-07-28T12:04:57.733Z,2.00
2022-07-28T12:07:33.385Z,1.80
2022-07-28T12:10:00.203Z,1.90
2022-07-28T12:12:27.286Z,1.70
2022-07-28T12:14:54.344Z,2.10
2022-07-28T12:17:21.059Z,1.77
2022-07-28T12:19:47.755Z,1.80
2022-07-28T12:22:15.857Z,1.95
2022-07-28T12:24:44.825Z,1.70
2022-07-28T12:27:12.259Z,2.17
2022-07-28T12:29:39.356Z,2.17
2022-07-28T12:32:08.080Z,1.70
2022-07-28T12:34:36.122Z,1.80
2022-07-28T12:37:05.169Z,1.70
2022-07-28T12:39:33.603Z,2.00
2022-07-28T12:42:02.861Z,1.67
2022-07-28T12:44:34.143Z,1.80
2022-07-28T12:47:00.952Z,2.08
2022-07-28T12:49:27.706Z,1.95
2022-07-28T12:51:54.427Z,1.65
2022-07-28T12:54:34.829Z,1.90
2022-07-28T12:57:03.354Z,2.15
2022-07-28T12:59:33.802Z,1.90
2022-07-28T13:02:01.143Z,1.80
2022-07-28T13:04:40.199Z,1.95
2022-07-28T13:07:08.116Z,1.80
2022-07-28T13:09:35.261Z,2.20
2022-07-28T13:12:13.457Z,1.70
2022-07-28T13:14:40.474Z,2.00
2022-07-28T13:17:07.159Z,1.77
2022-07-28T13:19:33.687Z,1.83
2022-07-28T13:22:04.035Z,2.00
2022-07-28T13:24:33.565Z,2.05
2022-07-28T13:27:03.027Z,1.92
2022-07-28T13:29:33.429Z,2.10
2022-07-28T13:32:00.081Z,1.83
2022-07-28T13:34:26.800Z,2.30
2022-07-28T13:36:53.414Z,2.03
2022-07-28T13:39:20.068Z,1.85
2022-07-28T13:41:57.339Z,1.70
2022-07-28T13:44:27.152Z,1.98
2022-07-28T13:46:53.741Z,1.85
2022-07-28T13:49:22.160Z,1.90
2022-07-28T13:51:48.826Z,1.70
2022-07-28T13:54:18.351Z,1.90
2022-07-28T13:56:45.339Z,1.95
2022-07-28T13:59:13.166Z,1.67
2022-07-28T14:01:42.366Z,1.95
2022-07-28T14:04:14.643Z,1.70
2022-07-28T14:06:43.860Z,1.90
2022-07-28T14:09:11.275Z,1.92
2022-07-28T14:11:39.457Z,1.90
2022-07-28T14:14:06.156Z,1.88
2022-07-28T14:16:32.934Z,1.85
2022-07-28T14:19:00.958Z,2.13
2022-07-28T14:21:27.919Z,1.88
2022-07-28T14:23:54.529Z,2.00
2022-07-28T14:26:35.490Z,1.80
2022-07-28T14:29:02.655Z,2.10
2022-07-28T14:31:29.323Z,1.85
2022-07-28T14:33:56.623Z,2.10
2022-07-28T14:36:24.527Z,1.90
2022-07-28T14:38:53.426Z,2.10
2022-07-28T14:41:20.709Z,1.70
2022-07-28T14:43:47.268Z,2.10
2022-07-28T14:46:20.660Z,1.73
2022-07-28T14:48:48.245Z,1.70
2022-07-28T14:51:14.838Z,2.00
2022-07-28T14:53:50.110Z,2.03
2022-07-28T14:56:18.543Z,2.05
2022-07-28T14:58:45.131Z,2.05
2022-07-28T15:01:12.457Z,1.88
2022-07-28T15:03:43.056Z,1.90
2022-07-28T15:06:10.059Z,1.70
2022-07-28T15:08:36.643Z,1.85
2022-07-28T15:11:04.559Z,2.28
2022-07-28T15:13:31.113Z,1.83
2022-07-28T15:16:04.853Z,2.00
2022-07-28T15:18:31.441Z,2.05
2022-07-28T15:20:58.019Z,2.33
2022-07-28T15:23:24.573Z,2.47
2022-07-28T15:25:51.267Z,2.45
2022-07-28T15:28:19.391Z,1.88
2022-07-28T15:30:49.354Z,2.70
2022-07-28T15:33:16.347Z,2.28
2022-07-28T15:35:58.610Z,2.80
2022-07-28T15:38:26.687Z,2.58
2022-07-28T15:40:53.229Z,1.83
2022-07-28T15:43:23.817Z,2.45
2022-07-28T15:45:50.872Z,2.25
2022-07-28T15:48:17.471Z,2.10
2022-07-28T15:50:44.054Z,2.33
2022-07-28T15:53:10.859Z,2.17
2022-07-28T15:55:37.451Z,2.42
2022-07-28T15:58:03.990Z,2.10
2022-07-28T16:00:31.894Z,2.35
2022-07-28T16:02:58.454Z,2.38
2022-07-28T16:05:25.059Z,2.13
2022-07-28T16:07:51.674Z,5.32
2022-07-28T16:10:18.248Z,3.95
2022-07-28T16:12:44.802Z,4.05
2022-07-28T16:15:11.370Z,2.80
2022-07-28T16:17:39.292Z,4.03
2022-07-28T16:20:10.166Z,5.68
2022-07-28T16:22:37.089Z,6.65
2022-07-28T16:25:04.900Z,3.30
2022-07-28T16:27:31.617Z,7.22
2022-07-28T16:29:58.191Z,2.22
2022-07-28T16:32:28.279Z,2.95
2022-07-28T16:34:56.263Z,2.20
2022-07-28T16:37:22.831Z,2.83
2022-07-28T16:39:49.354Z,2.45
2022-07-28T16:42:15.906Z,1.95
2022-07-28T16:44:42.443Z,1.80
2022-07-28T16:47:09.049Z,2.00
2022-07-28T16:49:35.593Z,2.42
2022-07-28T16:52:04.021Z,2.33
2022-07-28T16:54:30.562Z,2.22
2022-07-28T16:56:57.168Z,2.00
2022-07-28T16:59:23.940Z,2.05
2022-07-28T17:02:03.759Z,2.15
2022-07-28T17:04:30.447Z,1.83
2022-07-28T17:06:58.543Z,2.20
2022-07-28T17:09:26.493Z,1.90
2022-07-28T17:11:53.069Z,2.05
2022-07-28T17:14:19.663Z,2.00
2022-07-28T17:16:46.238Z,1.92
2022-07-28T17:19:12.803Z,1.85
2022-07-28T17:21:39.362Z,1.95
2022-07-28T17:24:06.647Z,1.85
2022-07-28T17:29:21.450Z,1.88
2022-07-28T17:31:48.171Z,1.85
2022-07-28T17:34:15.049Z,1.90
2022-07-28T17:36:41.967Z,1.88
2022-07-28T17:39:08.756Z,1.88
2022-07-28T17:41:36.696Z,2.00
2022-07-28T17:44:03.338Z,2.50
2022-07-28T17:46:30.092Z,2.13
2022-07-28T17:48:58.322Z,1.90
2022-07-28T17:51:25.006Z,2.03
2022-07-28T17:53:51.580Z,2.05
2022-07-28T17:56:20.741Z,1.85
2022-07-28T17:58:49.970Z,1.92
2022-07-28T18:01:17.160Z,2.10
2022-07-28T18:03:56.631Z,2.20
2022-07-28T18:06:27.570Z,1.90
2022-07-28T18:08:54.122Z,1.88
2022-07-28T18:11:20.650Z,1.90
2022-07-28T18:14:04.371Z,1.90
2022-07-28T18:16:33.364Z,2.00
2022-07-28T18:19:00.085Z,1.95
2022-07-28T18:21:26.762Z,2.08
2022-07-28T18:23:54.861Z,2.50
2022-07-28T18:26:21.765Z,1.70
2022-07-28T18:28:48.337Z,1.95
2022-07-28T18:31:14.944Z,1.80
2022-07-28T18:33:42.992Z,2.10
2022-07-28T18:36:09.540Z,2.03
2022-07-28T18:38:36.103Z,1.77
2022-07-28T18:41:02.650Z,1.80
2022-07-28T18:43:29.223Z,1.88
2022-07-28T18:45:55.806Z,1.90
2022-07-28T18:48:22.432Z,1.85
2022-07-28T18:50:50.334Z,1.90
2022-07-28T18:53:16.959Z,1.90
2022-07-28T18:55:43.629Z,1.95
2022-07-28T18:58:10.204Z,1.90
2022-07-28T19:00:36.780Z,1.85
2022-07-28T19:03:03.434Z,2.05
2022-07-28T19:05:36.823Z,1.90
2022-07-28T19:08:05.582Z,2.00
2022-07-28T19:10:32.342Z,1.77
2022-07-28T19:12:59.354Z,2.28
2022-07-28T19:15:26.140Z,2.08
2022-07-28T19:18:10.065Z,1.83
2022-07-28T19:20:38.653Z,2.58
2022-07-28T19:23:06.591Z,1.90
2022-07-28T19:25:33.251Z,2.13
2022-07-28T19:27:59.793Z,2.00
2022-07-28T19:30:26.379Z,1.92
2022-07-28T19:32:52.915Z,2.10
2022-07-28T19:35:19.471Z,2.00
2022-07-28T19:37:46.041Z,2.08
2022-07-28T19:40:14.046Z,1.67
2022-07-28T19:42:40.619Z,1.90
2022-07-28T19:45:08.529Z,2.20
2022-07-28T19:47:36.641Z,1.90
2022-07-28T19:50:04.431Z,2.20
2022-07-28T19:52:30.993Z,2.00
2022-07-28T19:54:57.867Z,2.45
2022-07-28T19:57:25.765Z,1.98
2022-07-28T19:59:52.306Z,2.30
2022-07-28T20:02:18.922Z,2.03
2022-07-28T20:04:45.530Z,2.10
2022-07-28T20:07:12.070Z,1.65
2022-07-28T20:09:38.698Z,1.90
2022-07-28T20:12:07.818Z,2.45
2022-07-28T20:14:37.236Z,1.92
2022-07-28T20:17:03.849Z,1.98
2022-07-28T20:19:30.471Z,2.38
2022-07-28T20:21:57.027Z,2.03
2022-07-28T20:24:23.586Z,2.03
2022-07-28T20:26:50.120Z,2.50
2022-07-28T20:29:16.688Z,1.98
2022-07-28T20:31:44.613Z,2.38
2022-07-28T20:34:11.240Z,2.50
2022-07-28T20:36:38.517Z,2.20
2022-07-28T20:39:21.073Z,2.42
2022-07-28T20:41:51.687Z,2.25
2022-07-28T20:44:28.930Z,2.13
2022-07-28T20:46:57.734Z,2.25
2022-07-28T20:49:24.390Z,2.38
2022-07-28T20:51:51.454Z,2.22
2022-07-28T20:54:18.453Z,2.10
2022-07-28T20:56:45.145Z,2.00
2022-07-28T20:59:11.713Z,2.10
2022-07-28T21:02:16.803Z,2.05
2022-07-28T21:04:43.609Z,1.90
2022-07-28T21:07:10.677Z,2.20
2022-07-28T21:09:37.425Z,2.45
2022-07-28T21:12:05.148Z,2.00
2022-07-28T21:14:31.723Z,2.17
2022-07-28T21:16:58.547Z,2.03
2022-07-28T21:19:26.580Z,2.10
2022-07-28T21:21:53.185Z,1.98
2022-07-28T21:24:19.770Z,2.13
2022-07-28T21:26:46.365Z,2.05
2022-07-28T21:31:58.465Z,2.35
2022-07-28T21:34:29.038Z,2.20
2022-07-28T21:36:55.606Z,2.17
2022-07-28T21:39:22.117Z,2.10
2022-07-28T21:41:48.690Z,2.20
2022-07-28T21:44:15.311Z,1.73
2022-07-28T21:46:42.033Z,2.20
2022-07-28T21:49:08.642Z,2.30
2022-07-28T21:51:36.664Z,2.05
2022-07-28T21:54:03.936Z,2.08
2022-07-28T21:56:30.580Z,2.00
2022-07-28T21:58:57.175Z,2.15
2022-07-28T22:01:23.903Z,1.90
2022-07-28T22:03:50.981Z,2.20
2022-07-28T22:06:17.590Z,2.03
2022-07-28T22:08:45.456Z,2.08
2022-07-28T22:11:11.989Z,2.17
2022-07-28T22:13:38.522Z,2.13
2022-07-28T22:16:06.545Z,2.20
2022-07-28T22:18:33.094Z,2.03
2022-07-28T22:20:59.695Z,1.70
2022-07-28T22:23:29.814Z,1.98
2022-07-28T22:25:58.043Z,1.90
2022-07-28T22:28:29.379Z,1.80
2022-07-28T22:30:57.192Z,1.83
2022-07-28T22:33:23.691Z,2.10
2022-07-28T22:35:50.220Z,2.28
2022-07-28T22:38:16.770Z,1.88
2022-07-28T22:40:43.300Z,1.98
2022-07-28T22:43:11.176Z,1.70
2022-07-28T22:45:50.734Z,2.10
2022-07-28T22:48:18.195Z,2.13
2022-07-28T22:50:44.920Z,1.98
2022-07-28T22:53:11.452Z,2.00
2022-07-28T22:55:37.984Z,1.83
2022-07-28T22:58:05.579Z,2.20
2022-07-28T23:00:36.352Z,1.92
2022-07-28T23:03:03.494Z,1.83
2022-07-28T23:05:30.660Z,1.90
2022-07-28T23:07:58.939Z,2.03
2022-07-28T23:10:26.138Z,2.30
2022-07-28T23:12:53.583Z,1.90
2022-07-28T23:15:21.644Z,1.88
2022-07-28T23:17:49.508Z,1.90
2022-07-28T23:20:16.167Z,1.98
2022-07-28T23:22:42.705Z,2.20
2022-07-28T23:25:09.689Z,2.10
2022-07-28T23:27:36.201Z,1.92
2022-07-28T23:30:02.951Z,2.20
2022-07-28T23:32:29.480Z,1.88
2022-07-28T23:34:57.340Z,1.80
2022-07-28T23:37:23.866Z,2.00
2022-07-28T23:39:50.381Z,1.67
2022-07-28T23:42:16.960Z,1.95
2022-07-28T23:44:43.497Z,2.13
2022-07-28T23:47:10.116Z,1.85
2022-07-28T23:49:36.680Z,1.88
2022-07-28T23:52:05.166Z,2.00
2022-07-28T23:54:31.869Z,2.03
2022-07-28T23:56:58.386Z,1.80
2022-07-28T23:59:24.936Z,2.50
